sensor_id;sensor_type;location;lat;lon;timestamp;temperature;humidity
21861;DHT22;11095;48.066;8.540;2022-07-06T00:00:04;15.90;99.90
21861;DHT22;11095;48.066;8.540;2022-07-06T00:02:30;15.80;99.90
21861;DHT22;11095;48.066;8.540;2022-07-06T00:04:55;15.80;99.90
21861;DHT22;11095;48.066;8.540;2022-07-06T00:07:23;15.80;99.90
21861;DHT22;11095;48.066;8.540;2022-07-06T00:09:49;15.80;99.90
21861;DHT22;11095;48.066;8.540;2022-07-06T00:12:15;15.70;99.90
21861;DHT22;11095;48.066;8.540;2022-07-06T00:14:41;15.70;99.90
21861;DHT22;11095;48.066;8.540;2022-07-06T00:17:07;15.70;99.90
21861;DHT22;11095;48.066;8.540;2022-07-06T00:19:32;15.60;99.90
21861;DHT22;11095;48.066;8.540;2022-07-06T00:21:58;15.60;99.90
21861;DHT22;11095;48.066;8.540;2022-07-06T00:24:25;15.60;99.90
21861;DHT22;11095;48.066;8.540;2022-07-06T00:26:51;15.50;99.90
21861;DHT22;11095;48.066;8.540;2022-07-06T00:29:17;15.50;99.90
21861;DHT22;11095;48.066;8.540;2022-07-06T00:31:42;15.40;99.90
21861;DHT22;11095;48.066;8.540;2022-07-06T00:34:08;15.30;99.90
21861;DHT22;11095;48.066;8.540;2022-07-06T00:36:33;15.20;99.90
21861;DHT22;11095;48.066;8.540;2022-07-06T00:38:59;15.20;99.90
21861;DHT22;11095;48.066;8.540;2022-07-06T00:41:25;15.10;99.90
21861;DHT22;11095;48.066;8.540;2022-07-06T00:43:54;14.90;99.90
21861;DHT22;11095;48.066;8.540;2022-07-06T00:46:28;14.70;99.90
21861;DHT22;11095;48.066;8.540;2022-07-06T00:48:56;14.50;99.90
21861;DHT22;11095;48.066;8.540;2022-07-06T00:51:25;14.40;99.90
21861;DHT22;11095;48.066;8.540;2022-07-06T00:53:54;14.30;99.90
21861;DHT22;11095;48.066;8.540;2022-07-06T00:56:20;14.20;99.90
21861;DHT22;11095;48.066;8.540;2022-07-06T00:58:46;14.10;99.90
21861;DHT22;11095;48.066;8.540;2022-07-06T01:01:12;14.00;99.90
21861;DHT22;11095;48.066;8.540;2022-07-06T01:03:37;13.90;99.90
21861;DHT22;11095;48.066;8.540;2022-07-06T01:06:03;13.90;99.90
21861;DHT22;11095;48.066;8.540;2022-07-06T01:08:29;13.80;99.90
21861;DHT22;11095;48.066;8.540;2022-07-06T01:10:55;13.70;99.90
21861;DHT22;11095;48.066;8.540;2022-07-06T01:13:20;13.70;99.90
21861;DHT22;11095;48.066;8.540;2022-07-06T01:15:46;13.70;99.90
21861;DHT22;11095;48.066;8.540;2022-07-06T01:18:12;13.70;99.90
21861;DHT22;11095;48.066;8.540;2022-07-06T01:20:38;13.70;99.90
21861;DHT22;11095;48.066;8.540;2022-07-06T01:23:03;13.60;99.90
21861;DHT22;11095;48.066;8.540;2022-07-06T01:25:29;13.60;99.90
21861;DHT22;11095;48.066;8.540;2022-07-06T01:27:55;13.60;99.90
21861;DHT22;11095;48.066;8.540;2022-07-06T01:30:20;13.50;99.90
21861;DHT22;11095;48.066;8.540;2022-07-06T01:32:46;13.50;99.90
21861;DHT22;11095;48.066;8.540;2022-07-06T01:35:14;13.40;99.90
21861;DHT22;11095;48.066;8.540;2022-07-06T01:37:41;13.40;99.90
21861;DHT22;11095;48.066;8.540;2022-07-06T01:40:08;13.30;99.90
21861;DHT22;11095;48.066;8.540;2022-07-06T01:42:35;13.20;99.90
21861;DHT22;11095;48.066;8.540;2022-07-06T01:45:03;13.20;99.90
21861;DHT22;11095;48.066;8.540;2022-07-06T01:47:29;13.20;99.90
21861;DHT22;11095;48.066;8.540;2022-07-06T01:49:58;13.10;99.90
21861;DHT22;11095;48.066;8.540;2022-07-06T01:52:25;13.10;99.90
21861;DHT22;11095;48.066;8.540;2022-07-06T01:54:51;13.20;99.90
21861;DHT22;11095;48.066;8.540;2022-07-06T01:57:16;13.20;99.90
21861;DHT22;11095;48.066;8.540;2022-07-06T01:59:42;13.20;99.90
21861;DHT22;11095;48.066;8.540;2022-07-06T02:02:07;13.20;99.90
21861;DHT22;11095;48.066;8.540;2022-07-06T02:04:33;13.10;99.90
21861;DHT22;11095;48.066;8.540;2022-07-06T02:06:59;13.10;99.90
21861;DHT22;11095;48.066;8.540;2022-07-06T02:09:24;13.10;99.90
21861;DHT22;11095;48.066;8.540;2022-07-06T02:11:50;13.00;99.90
21861;DHT22;11095;48.066;8.540;2022-07-06T02:14:15;13.00;99.90
21861;DHT22;11095;48.066;8.540;2022-07-06T02:16:41;13.00;99.90
21861;DHT22;11095;48.066;8.540;2022-07-06T02:19:07;13.00;99.90
21861;DHT22;11095;48.066;8.540;2022-07-06T02:21:32;13.00;99.90
21861;DHT22;11095;48.066;8.540;2022-07-06T02:23:58;13.00;99.90
21861;DHT22;11095;48.066;8.540;2022-07-06T02:26:24;13.00;99.90
21861;DHT22;11095;48.066;8.540;2022-07-06T02:28:49;12.90;99.90
21861;DHT22;11095;48.066;8.540;2022-07-06T02:31:15;13.00;99.90
21861;DHT22;11095;48.066;8.540;2022-07-06T02:33:41;13.00;99.90
21861;DHT22;11095;48.066;8.540;2022-07-06T02:36:07;12.90;99.90
21861;DHT22;11095;48.066;8.540;2022-07-06T02:38:33;12.90;99.90
21861;DHT22;11095;48.066;8.540;2022-07-06T02:40:59;12.90;99.90
21861;DHT22;11095;48.066;8.540;2022-07-06T02:43:24;12.80;99.90
21861;DHT22;11095;48.066;8.540;2022-07-06T02:45:50;12.80;99.90
21861;DHT22;11095;48.066;8.540;2022-07-06T02:48:16;12.80;99.90
21861;DHT22;11095;48.066;8.540;2022-07-06T02:50:43;12.70;99.90
21861;DHT22;11095;48.066;8.540;2022-07-06T02:53:08;12.60;99.90
21861;DHT22;11095;48.066;8.540;2022-07-06T02:55:34;12.50;99.90
21861;DHT22;11095;48.066;8.540;2022-07-06T02:58:00;12.50;99.90
21861;DHT22;11095;48.066;8.540;2022-07-06T03:00:25;12.40;99.90
21861;DHT22;11095;48.066;8.540;2022-07-06T03:02:52;12.40;99.90
21861;DHT22;11095;48.066;8.540;2022-07-06T03:05:17;12.50;99.90
21861;DHT22;11095;48.066;8.540;2022-07-06T03:07:43;12.50;99.90
21861;DHT22;11095;48.066;8.540;2022-07-06T03:10:08;12.50;99.90
21861;DHT22;11095;48.066;8.540;2022-07-06T03:12:34;12.50;99.90
21861;DHT22;11095;48.066;8.540;2022-07-06T03:15:00;12.40;99.90
21861;DHT22;11095;48.066;8.540;2022-07-06T03:17:26;12.40;99.90
21861;DHT22;11095;48.066;8.540;2022-07-06T03:19:51;12.40;99.90
21861;DHT22;11095;48.066;8.540;2022-07-06T03:22:18;12.30;99.90
21861;DHT22;11095;48.066;8.540;2022-07-06T03:24:43;12.40;99.90
21861;DHT22;11095;48.066;8.540;2022-07-06T03:27:09;12.30;99.90
21861;DHT22;11095;48.066;8.540;2022-07-06T03:29:34;12.30;99.90
21861;DHT22;11095;48.066;8.540;2022-07-06T03:32:00;12.30;99.90
21861;DHT22;11095;48.066;8.540;2022-07-06T03:34:26;12.30;99.90
21861;DHT22;11095;48.066;8.540;2022-07-06T03:36:51;12.20;99.90
21861;DHT22;11095;48.066;8.540;2022-07-06T03:39:17;12.30;99.90
21861;DHT22;11095;48.066;8.540;2022-07-06T03:41:43;12.30;99.90
21861;DHT22;11095;48.066;8.540;2022-07-06T03:44:08;12.30;99.90
21861;DHT22;11095;48.066;8.540;2022-07-06T03:46:34;12.30;99.90
21861;DHT22;11095;48.066;8.540;2022-07-06T03:49:00;12.40;99.90
21861;DHT22;11095;48.066;8.540;2022-07-06T03:51:25;12.50;99.90
21861;DHT22;11095;48.066;8.540;2022-07-06T03:53:51;12.70;99.90
21861;DHT22;11095;48.066;8.540;2022-07-06T03:56:16;13.00;99.90
21861;DHT22;11095;48.066;8.540;2022-07-06T03:58:56;13.50;99.90
21861;DHT22;11095;48.066;8.540;2022-07-06T04:01:22;14.00;99.90
21861;DHT22;11095;48.066;8.540;2022-07-06T04:03:47;14.50;99.90
21861;DHT22;11095;48.066;8.540;2022-07-06T04:06:13;15.10;99.90
21861;DHT22;11095;48.066;8.540;2022-07-06T04:08:39;15.60;99.90
21861;DHT22;11095;48.066;8.540;2022-07-06T04:11:05;16.20;99.90
21861;DHT22;11095;48.066;8.540;2022-07-06T04:13:31;17.00;99.90
21861;DHT22;11095;48.066;8.540;2022-07-06T04:15:57;17.80;99.90
21861;DHT22;11095;48.066;8.540;2022-07-06T04:18:24;18.70;99.90
21861;DHT22;11095;48.066;8.540;2022-07-06T04:20:49;19.50;99.90
21861;DHT22;11095;48.066;8.540;2022-07-06T04:23:15;20.30;99.90
21861;DHT22;11095;48.066;8.540;2022-07-06T04:25:41;21.10;99.90
21861;DHT22;11095;48.066;8.540;2022-07-06T04:28:06;21.90;99.90
21861;DHT22;11095;48.066;8.540;2022-07-06T04:30:32;22.70;99.90
21861;DHT22;11095;48.066;8.540;2022-07-06T04:32:58;23.40;99.90
21861;DHT22;11095;48.066;8.540;2022-07-06T04:35:23;24.20;99.90
21861;DHT22;11095;48.066;8.540;2022-07-06T04:37:49;24.90;99.90
21861;DHT22;11095;48.066;8.540;2022-07-06T04:40:15;25.50;99.30
21861;DHT22;11095;48.066;8.540;2022-07-06T04:42:40;26.00;97.10
21861;DHT22;11095;48.066;8.540;2022-07-06T04:45:06;26.50;95.70
21861;DHT22;11095;48.066;8.540;2022-07-06T04:47:32;26.80;93.30
21861;DHT22;11095;48.066;8.540;2022-07-06T04:49:58;27.20;92.10
21861;DHT22;11095;48.066;8.540;2022-07-06T04:52:23;27.40;90.40
21861;DHT22;11095;48.066;8.540;2022-07-06T04:54:49;27.90;89.70
21861;DHT22;11095;48.066;8.540;2022-07-06T04:57:15;28.40;85.80
21861;DHT22;11095;48.066;8.540;2022-07-06T04:59:41;28.80;83.50
21861;DHT22;11095;48.066;8.540;2022-07-06T05:02:06;28.90;80.50
21861;DHT22;11095;48.066;8.540;2022-07-06T05:04:32;28.40;78.40
21861;DHT22;11095;48.066;8.540;2022-07-06T05:06:58;28.60;78.20
21861;DHT22;11095;48.066;8.540;2022-07-06T05:09:24;27.40;77.60
21861;DHT22;11095;48.066;8.540;2022-07-06T05:11:50;27.80;79.00
21861;DHT22;11095;48.066;8.540;2022-07-06T05:14:15;28.20;78.70
21861;DHT22;11095;48.066;8.540;2022-07-06T05:16:41;28.40;76.00
21861;DHT22;11095;48.066;8.540;2022-07-06T05:19:06;28.80;75.50
21861;DHT22;11095;48.066;8.540;2022-07-06T05:21:32;28.40;73.40
21861;DHT22;11095;48.066;8.540;2022-07-06T05:23:58;27.40;73.50
21861;DHT22;11095;48.066;8.540;2022-07-06T05:26:23;25.20;77.70
21861;DHT22;11095;48.066;8.540;2022-07-06T05:28:49;23.40;83.90
21861;DHT22;11095;48.066;8.540;2022-07-06T05:31:15;23.30;86.30
21861;DHT22;11095;48.066;8.540;2022-07-06T05:33:40;23.50;85.60
21861;DHT22;11095;48.066;8.540;2022-07-06T05:36:06;23.20;85.50
21861;DHT22;11095;48.066;8.540;2022-07-06T05:38:33;21.20;91.20
21861;DHT22;11095;48.066;8.540;2022-07-06T05:40:59;21.80;91.20
21861;DHT22;11095;48.066;8.540;2022-07-06T05:43:24;20.40;92.70
21861;DHT22;11095;48.066;8.540;2022-07-06T05:45:50;20.40;93.40
21861;DHT22;11095;48.066;8.540;2022-07-06T05:48:16;21.20;92.10
21861;DHT22;11095;48.066;8.540;2022-07-06T05:51:00;21.30;92.10
21861;DHT22;11095;48.066;8.540;2022-07-06T05:53:26;22.20;92.10
21861;DHT22;11095;48.066;8.540;2022-07-06T05:55:53;23.60;90.80
21861;DHT22;11095;48.066;8.540;2022-07-06T05:58:18;23.70;90.00
21861;DHT22;11095;48.066;8.540;2022-07-06T06:00:44;25.20;88.20
21861;DHT22;11095;48.066;8.540;2022-07-06T06:03:10;25.50;82.60
21861;DHT22;11095;48.066;8.540;2022-07-06T06:05:35;24.60;84.80
21861;DHT22;11095;48.066;8.540;2022-07-06T06:08:01;22.80;87.90
21861;DHT22;11095;48.066;8.540;2022-07-06T06:10:27;23.20;90.30
21861;DHT22;11095;48.066;8.540;2022-07-06T06:12:53;22.70;88.10
21861;DHT22;11095;48.066;8.540;2022-07-06T06:15:19;20.30;93.30
21861;DHT22;11095;48.066;8.540;2022-07-06T06:17:45;19.90;93.50
21861;DHT22;11095;48.066;8.540;2022-07-06T06:20:12;20.40;94.20
21861;DHT22;11095;48.066;8.540;2022-07-06T06:22:53;20.80;93.90
21861;DHT22;11095;48.066;8.540;2022-07-06T06:25:31;20.50;93.50
21861;DHT22;11095;48.066;8.540;2022-07-06T06:27:57;21.60;93.50
21861;DHT22;11095;48.066;8.540;2022-07-06T06:30:23;23.70;92.00
21861;DHT22;11095;48.066;8.540;2022-07-06T06:32:48;24.60;87.60
21861;DHT22;11095;48.066;8.540;2022-07-06T06:35:14;24.60;89.40
21861;DHT22;11095;48.066;8.540;2022-07-06T06:37:40;23.80;87.90
21861;DHT22;11095;48.066;8.540;2022-07-06T06:40:06;25.20;88.20
21861;DHT22;11095;48.066;8.540;2022-07-06T06:42:35;26.00;85.80
21861;DHT22;11095;48.066;8.540;2022-07-06T06:45:00;24.80;87.50
21861;DHT22;11095;48.066;8.540;2022-07-06T06:47:26;22.40;91.10
21861;DHT22;11095;48.066;8.540;2022-07-06T06:49:52;22.50;92.90
21861;DHT22;11095;48.066;8.540;2022-07-06T06:52:17;24.60;90.40
21861;DHT22;11095;48.066;8.540;2022-07-06T06:54:43;25.90;87.40
21861;DHT22;11095;48.066;8.540;2022-07-06T06:57:09;26.60;84.40
21861;DHT22;11095;48.066;8.540;2022-07-06T06:59:34;24.30;85.50
21861;DHT22;11095;48.066;8.540;2022-07-06T07:02:00;23.00;90.30
21861;DHT22;11095;48.066;8.540;2022-07-06T07:04:25;24.40;90.60
21861;DHT22;11095;48.066;8.540;2022-07-06T07:06:51;26.10;86.30
21861;DHT22;11095;48.066;8.540;2022-07-06T07:09:17;25.70;85.50
21861;DHT22;11095;48.066;8.540;2022-07-06T07:11:42;24.60;85.10
21861;DHT22;11095;48.066;8.540;2022-07-06T07:14:08;23.70;88.50
21861;DHT22;11095;48.066;8.540;2022-07-06T07:16:34;21.50;91.00
21861;DHT22;11095;48.066;8.540;2022-07-06T07:18:59;22.30;92.00
21861;DHT22;11095;48.066;8.540;2022-07-06T07:21:25;23.20;90.90
21861;DHT22;11095;48.066;8.540;2022-07-06T07:23:50;23.00;91.20
21861;DHT22;11095;48.066;8.540;2022-07-06T07:26:16;21.60;91.60
21861;DHT22;11095;48.066;8.540;2022-07-06T07:28:42;22.10;92.50
21861;DHT22;11095;48.066;8.540;2022-07-06T07:31:08;22.20;92.40
21861;DHT22;11095;48.066;8.540;2022-07-06T07:33:34;21.70;93.20
21861;DHT22;11095;48.066;8.540;2022-07-06T07:35:59;21.50;93.50
21861;DHT22;11095;48.066;8.540;2022-07-06T07:38:25;21.50;93.30
21861;DHT22;11095;48.066;8.540;2022-07-06T07:40:53;21.40;94.00
21861;DHT22;11095;48.066;8.540;2022-07-06T07:43:18;21.40;94.50
21861;DHT22;11095;48.066;8.540;2022-07-06T07:45:44;20.50;95.40
21861;DHT22;11095;48.066;8.540;2022-07-06T07:48:10;21.50;95.10
21861;DHT22;11095;48.066;8.540;2022-07-06T07:50:37;21.30;94.70
21861;DHT22;11095;48.066;8.540;2022-07-06T07:53:03;21.00;95.00
21861;DHT22;11095;48.066;8.540;2022-07-06T07:55:29;21.30;95.10
21861;DHT22;11095;48.066;8.540;2022-07-06T07:57:54;23.00;92.70
21861;DHT22;11095;48.066;8.540;2022-07-06T08:00:20;24.00;91.50
21861;DHT22;11095;48.066;8.540;2022-07-06T08:02:47;25.90;90.30
21861;DHT22;11095;48.066;8.540;2022-07-06T08:05:12;27.30;82.90
21861;DHT22;11095;48.066;8.540;2022-07-06T08:07:41;25.20;84.30
21861;DHT22;11095;48.066;8.540;2022-07-06T08:10:07;23.30;90.20
21861;DHT22;11095;48.066;8.540;2022-07-06T08:12:33;23.80;90.20
21861;DHT22;11095;48.066;8.540;2022-07-06T08:14:58;23.90;90.00
21861;DHT22;11095;48.066;8.540;2022-07-06T08:17:24;23.60;90.00
21861;DHT22;11095;48.066;8.540;2022-07-06T08:19:50;23.00;91.00
21861;DHT22;11095;48.066;8.540;2022-07-06T08:22:15;22.30;92.00
21861;DHT22;11095;48.066;8.540;2022-07-06T08:24:41;21.90;92.90
21861;DHT22;11095;48.066;8.540;2022-07-06T08:27:06;22.50;91.70
21861;DHT22;11095;48.066;8.540;2022-07-06T08:29:32;21.90;92.50
21861;DHT22;11095;48.066;8.540;2022-07-06T08:31:58;22.70;92.40
21861;DHT22;11095;48.066;8.540;2022-07-06T08:34:24;23.00;92.20
21861;DHT22;11095;48.066;8.540;2022-07-06T08:36:50;22.10;92.20
21861;DHT22;11095;48.066;8.540;2022-07-06T08:39:15;22.60;92.40
21861;DHT22;11095;48.066;8.540;2022-07-06T08:41:42;23.60;91.30
21861;DHT22;11095;48.066;8.540;2022-07-06T08:44:10;24.10;89.00
21861;DHT22;11095;48.066;8.540;2022-07-06T08:46:40;24.80;86.80
21861;DHT22;11095;48.066;8.540;2022-07-06T08:49:06;24.50;86.50
21861;DHT22;11095;48.066;8.540;2022-07-06T08:51:32;23.40;88.80
21861;DHT22;11095;48.066;8.540;2022-07-06T08:54:00;22.40;91.60
21861;DHT22;11095;48.066;8.540;2022-07-06T08:56:28;23.00;87.70
21861;DHT22;11095;48.066;8.540;2022-07-06T08:58:54;22.50;90.20
21861;DHT22;11095;48.066;8.540;2022-07-06T09:01:21;23.40;90.00
21861;DHT22;11095;48.066;8.540;2022-07-06T09:03:49;23.60;89.10
21861;DHT22;11095;48.066;8.540;2022-07-06T09:06:17;23.90;89.90
21861;DHT22;11095;48.066;8.540;2022-07-06T09:08:45;25.00;87.50
21861;DHT22;11095;48.066;8.540;2022-07-06T09:11:11;24.10;88.30
21861;DHT22;11095;48.066;8.540;2022-07-06T09:13:37;23.60;87.20
21861;DHT22;11095;48.066;8.540;2022-07-06T09:16:14;23.40;88.10
21861;DHT22;11095;48.066;8.540;2022-07-06T09:18:44;24.40;88.00
21861;DHT22;11095;48.066;8.540;2022-07-06T09:21:10;23.00;88.50
21861;DHT22;11095;48.066;8.540;2022-07-06T09:23:37;23.80;88.30
21861;DHT22;11095;48.066;8.540;2022-07-06T09:26:04;23.30;90.30
21861;DHT22;11095;48.066;8.540;2022-07-06T09:28:43;24.70;88.20
21861;DHT22;11095;48.066;8.540;2022-07-06T09:31:09;23.10;87.90
21861;DHT22;11095;48.066;8.540;2022-07-06T09:33:36;23.80;89.00
21861;DHT22;11095;48.066;8.540;2022-07-06T09:36:02;23.70;88.50
21861;DHT22;11095;48.066;8.540;2022-07-06T09:38:28;24.10;87.10
21861;DHT22;11095;48.066;8.540;2022-07-06T09:40:54;24.10;86.40
21861;DHT22;11095;48.066;8.540;2022-07-06T09:43:21;23.20;87.90
21861;DHT22;11095;48.066;8.540;2022-07-06T09:45:52;23.10;89.10
21861;DHT22;11095;48.066;8.540;2022-07-06T09:48:25;21.60;91.30
21861;DHT22;11095;48.066;8.540;2022-07-06T09:50:57;22.40;91.50
21861;DHT22;11095;48.066;8.540;2022-07-06T09:53:25;23.10;90.70
21861;DHT22;11095;48.066;8.540;2022-07-06T09:55:53;24.00;91.00
21861;DHT22;11095;48.066;8.540;2022-07-06T09:58:20;24.70;87.50
21861;DHT22;11095;48.066;8.540;2022-07-06T10:00:47;23.60;90.20
21861;DHT22;11095;48.066;8.540;2022-07-06T10:03:15;24.30;88.60
21861;DHT22;11095;48.066;8.540;2022-07-06T10:05:43;24.70;86.70
21861;DHT22;11095;48.066;8.540;2022-07-06T10:08:09;23.50;87.70
21861;DHT22;11095;48.066;8.540;2022-07-06T10:10:36;24.20;87.20
21861;DHT22;11095;48.066;8.540;2022-07-06T10:13:03;24.60;86.80
21861;DHT22;11095;48.066;8.540;2022-07-06T10:15:31;25.00;85.60
21861;DHT22;11095;48.066;8.540;2022-07-06T10:17:59;24.60;86.20
21861;DHT22;11095;48.066;8.540;2022-07-06T10:20:28;23.00;90.10
21861;DHT22;11095;48.066;8.540;2022-07-06T10:22:54;23.00;90.40
21861;DHT22;11095;48.066;8.540;2022-07-06T10:25:23;23.90;90.70
21861;DHT22;11095;48.066;8.540;2022-07-06T10:27:52;24.70;86.90
21861;DHT22;11095;48.066;8.540;2022-07-06T10:30:18;24.40;87.80
21861;DHT22;11095;48.066;8.540;2022-07-06T10:32:46;24.50;86.60
21861;DHT22;11095;48.066;8.540;2022-07-06T10:35:14;24.00;87.80
21861;DHT22;11095;48.066;8.540;2022-07-06T10:37:40;23.90;87.40
21861;DHT22;11095;48.066;8.540;2022-07-06T10:40:07;23.30;89.00
21861;DHT22;11095;48.066;8.540;2022-07-06T10:43:02;23.60;89.40
21861;DHT22;11095;48.066;8.540;2022-07-06T10:50:46;26.40;82.50
21861;DHT22;11095;48.066;8.540;2022-07-06T10:53:14;26.60;82.50
21861;DHT22;11095;48.066;8.540;2022-07-06T10:55:46;25.10;84.80
21861;DHT22;11095;48.066;8.540;2022-07-06T10:58:13;25.40;85.40
21861;DHT22;11095;48.066;8.540;2022-07-06T11:00:54;23.10;88.20
21861;DHT22;11095;48.066;8.540;2022-07-06T11:03:39;23.30;90.00
21861;DHT22;11095;48.066;8.540;2022-07-06T11:08:58;22.80;90.80
21861;DHT22;11095;48.066;8.540;2022-07-06T11:17:01;22.30;91.50
21861;DHT22;11095;48.066;8.540;2022-07-06T11:19:27;22.90;90.30
21861;DHT22;11095;48.066;8.540;2022-07-06T11:21:53;22.70;89.40
21861;DHT22;11095;48.066;8.540;2022-07-06T11:24:29;22.80;89.20
21861;DHT22;11095;48.066;8.540;2022-07-06T11:26:56;22.60;89.50
21861;DHT22;11095;48.066;8.540;2022-07-06T11:29:24;22.50;90.00
21861;DHT22;11095;48.066;8.540;2022-07-06T11:31:51;23.00;91.10
21861;DHT22;11095;48.066;8.540;2022-07-06T11:34:27;23.70;90.00
21861;DHT22;11095;48.066;8.540;2022-07-06T11:37:01;23.50;88.50
21861;DHT22;11095;48.066;8.540;2022-07-06T11:39:35;23.00;88.40
21861;DHT22;11095;48.066;8.540;2022-07-06T11:42:02;22.50;89.10
21861;DHT22;11095;48.066;8.540;2022-07-06T11:44:31;22.20;90.30
21861;DHT22;11095;48.066;8.540;2022-07-06T11:46:58;21.80;91.20
21861;DHT22;11095;48.066;8.540;2022-07-06T11:49:26;21.70;91.50
21861;DHT22;11095;48.066;8.540;2022-07-06T11:51:52;21.90;91.60
21861;DHT22;11095;48.066;8.540;2022-07-06T11:54:19;22.10;91.80
21861;DHT22;11095;48.066;8.540;2022-07-06T11:56:58;22.80;91.20
21861;DHT22;11095;48.066;8.540;2022-07-06T11:59:30;23.30;90.20
21861;DHT22;11095;48.066;8.540;2022-07-06T12:02:00;23.60;89.00
21861;DHT22;11095;48.066;8.540;2022-07-06T12:04:26;23.90;89.30
21861;DHT22;11095;48.066;8.540;2022-07-06T12:06:51;24.70;91.10
21861;DHT22;11095;48.066;8.540;2022-07-06T12:09:18;25.40;88.60
21861;DHT22;11095;48.066;8.540;2022-07-06T12:11:46;25.60;84.80
21861;DHT22;11095;48.066;8.540;2022-07-06T12:14:14;23.70;87.20
21861;DHT22;11095;48.066;8.540;2022-07-06T12:16:41;23.20;88.50
21861;DHT22;11095;48.066;8.540;2022-07-06T12:19:06;23.20;90.10
21861;DHT22;11095;48.066;8.540;2022-07-06T12:21:34;23.50;90.00
21861;DHT22;11095;48.066;8.540;2022-07-06T12:24:00;22.80;90.40
21861;DHT22;11095;48.066;8.540;2022-07-06T12:26:27;22.70;91.20
21861;DHT22;11095;48.066;8.540;2022-07-06T12:29:06;22.40;90.90
21861;DHT22;11095;48.066;8.540;2022-07-06T12:31:44;22.60;90.70
21861;DHT22;11095;48.066;8.540;2022-07-06T12:34:15;23.20;91.60
21861;DHT22;11095;48.066;8.540;2022-07-06T12:36:48;23.50;89.70
21861;DHT22;11095;48.066;8.540;2022-07-06T12:39:16;23.10;90.10
21861;DHT22;11095;48.066;8.540;2022-07-06T12:41:50;23.00;90.50
21861;DHT22;11095;48.066;8.540;2022-07-06T12:44:18;22.40;91.00
21861;DHT22;11095;48.066;8.540;2022-07-06T12:46:44;22.50;91.50
21861;DHT22;11095;48.066;8.540;2022-07-06T12:51:51;22.90;90.80
21861;DHT22;11095;48.066;8.540;2022-07-06T12:54:17;22.60;91.60
21861;DHT22;11095;48.066;8.540;2022-07-06T12:59:33;22.30;92.50
21861;DHT22;11095;48.066;8.540;2022-07-06T13:01:59;22.30;92.10
21861;DHT22;11095;48.066;8.540;2022-07-06T13:04:27;22.40;92.30
21861;DHT22;11095;48.066;8.540;2022-07-06T13:06:53;22.80;92.20
21861;DHT22;11095;48.066;8.540;2022-07-06T13:09:20;22.90;92.30
21861;DHT22;11095;48.066;8.540;2022-07-06T13:11:47;22.40;92.00
21861;DHT22;11095;48.066;8.540;2022-07-06T13:14:14;22.40;92.70
21861;DHT22;11095;48.066;8.540;2022-07-06T13:16:42;22.70;92.90
21861;DHT22;11095;48.066;8.540;2022-07-06T13:19:08;23.20;92.20
21861;DHT22;11095;48.066;8.540;2022-07-06T13:21:33;23.30;92.20
21861;DHT22;11095;48.066;8.540;2022-07-06T13:23:59;22.80;91.80
21861;DHT22;11095;48.066;8.540;2022-07-06T13:26:24;22.30;92.70
21861;DHT22;11095;48.066;8.540;2022-07-06T13:28:50;22.30;93.00
21861;DHT22;11095;48.066;8.540;2022-07-06T13:31:16;22.60;93.10
21861;DHT22;11095;48.066;8.540;2022-07-06T13:33:41;22.40;92.90
21861;DHT22;11095;48.066;8.540;2022-07-06T13:36:07;22.10;93.00
21861;DHT22;11095;48.066;8.540;2022-07-06T13:38:33;22.00;93.00
21861;DHT22;11095;48.066;8.540;2022-07-06T13:40:58;21.70;93.60
21861;DHT22;11095;48.066;8.540;2022-07-06T13:43:24;21.60;94.10
21861;DHT22;11095;48.066;8.540;2022-07-06T13:45:50;22.10;94.70
21861;DHT22;11095;48.066;8.540;2022-07-06T13:48:15;22.30;93.30
21861;DHT22;11095;48.066;8.540;2022-07-06T13:50:41;22.20;93.20
21861;DHT22;11095;48.066;8.540;2022-07-06T13:53:07;21.70;93.40
21861;DHT22;11095;48.066;8.540;2022-07-06T13:55:33;21.80;94.10
21861;DHT22;11095;48.066;8.540;2022-07-06T13:57:59;22.10;93.20
21861;DHT22;11095;48.066;8.540;2022-07-06T14:00:25;21.80;93.40
21861;DHT22;11095;48.066;8.540;2022-07-06T14:02:51;22.00;93.60
21861;DHT22;11095;48.066;8.540;2022-07-06T14:05:17;22.10;93.00
21861;DHT22;11095;48.066;8.540;2022-07-06T14:07:42;22.10;93.30
21861;DHT22;11095;48.066;8.540;2022-07-06T14:10:08;22.60;93.40
21861;DHT22;11095;48.066;8.540;2022-07-06T14:12:34;23.10;92.00
21861;DHT22;11095;48.066;8.540;2022-07-06T14:15:00;23.10;91.50
21861;DHT22;11095;48.066;8.540;2022-07-06T14:17:26;23.30;90.70
21861;DHT22;11095;48.066;8.540;2022-07-06T14:19:51;23.50;91.50
21861;DHT22;11095;48.066;8.540;2022-07-06T14:22:17;23.60;91.00
21861;DHT22;11095;48.066;8.540;2022-07-06T14:24:43;23.40;90.90
21861;DHT22;11095;48.066;8.540;2022-07-06T14:27:09;23.40;90.70
21861;DHT22;11095;48.066;8.540;2022-07-06T14:29:34;22.90;91.80
21861;DHT22;11095;48.066;8.540;2022-07-06T14:32:00;23.40;91.00
21861;DHT22;11095;48.066;8.540;2022-07-06T14:34:25;22.90;90.50
21861;DHT22;11095;48.066;8.540;2022-07-06T14:36:51;23.20;90.70
21861;DHT22;11095;48.066;8.540;2022-07-06T14:39:17;22.80;90.80
21861;DHT22;11095;48.066;8.540;2022-07-06T14:41:43;22.90;90.80
21861;DHT22;11095;48.066;8.540;2022-07-06T14:44:08;22.80;91.50
21861;DHT22;11095;48.066;8.540;2022-07-06T14:46:34;23.00;91.80
21861;DHT22;11095;48.066;8.540;2022-07-06T14:49:00;23.20;90.80
21861;DHT22;11095;48.066;8.540;2022-07-06T14:51:26;23.10;91.60
21861;DHT22;11095;48.066;8.540;2022-07-06T14:53:52;23.00;91.20
21861;DHT22;11095;48.066;8.540;2022-07-06T14:56:17;22.90;91.00
21861;DHT22;11095;48.066;8.540;2022-07-06T14:58:43;22.70;91.30
21861;DHT22;11095;48.066;8.540;2022-07-06T15:01:09;22.00;91.70
21861;DHT22;11095;48.066;8.540;2022-07-06T15:03:34;22.50;91.80
21861;DHT22;11095;48.066;8.540;2022-07-06T15:06:00;22.40;91.40
21861;DHT22;11095;48.066;8.540;2022-07-06T15:08:26;22.10;92.00
21861;DHT22;11095;48.066;8.540;2022-07-06T15:10:51;22.30;92.40
21861;DHT22;11095;48.066;8.540;2022-07-06T15:13:17;22.70;92.50
21861;DHT22;11095;48.066;8.540;2022-07-06T15:15:43;23.10;92.10
21861;DHT22;11095;48.066;8.540;2022-07-06T15:18:09;23.30;90.70
21861;DHT22;11095;48.066;8.540;2022-07-06T15:20:35;23.40;90.30
21861;DHT22;11095;48.066;8.540;2022-07-06T15:23:00;23.20;91.10
21861;DHT22;11095;48.066;8.540;2022-07-06T15:25:26;22.90;91.50
21861;DHT22;11095;48.066;8.540;2022-07-06T15:27:52;22.60;92.30
21861;DHT22;11095;48.066;8.540;2022-07-06T15:30:18;22.00;93.30
21861;DHT22;11095;48.066;8.540;2022-07-06T15:32:43;22.30;93.50
21861;DHT22;11095;48.066;8.540;2022-07-06T15:35:09;22.00;93.60
21861;DHT22;11095;48.066;8.540;2022-07-06T15:37:35;22.10;93.30
21861;DHT22;11095;48.066;8.540;2022-07-06T15:40:03;22.20;93.10
21861;DHT22;11095;48.066;8.540;2022-07-06T15:42:28;22.30;92.70
21861;DHT22;11095;48.066;8.540;2022-07-06T15:44:54;22.60;93.10